Time;durP1;ratioP1;P1;durP2;ratioP2;P2;SDS_P1;SDS_P2;PMS_P1;PMS_P2;Temp;Humidity;BMP_temperature;BMP_pressure;BME280_temperature;BME280_humidity;BME280_pressure;Samples;Min_cycle;Max_cycle;Signal;HPM_P1;HPM_P2
2023/01/18 00:02:45;;;;;;;5.32;2.83;;;3.20;99.90;;;;;;9981329;28;20037;-60
2023/01/18 00:07:36;;;;;;;4.43;1.98;;;3.10;99.90;;;;;;9979772;28;20042;-59
2023/01/18 00:12:27;;;;;;;4.55;2.33;;;3.20;99.90;;;;;;9982926;28;20473;-58
2023/01/18 00:17:17;;;;;;;6.28;2.10;;;3.10;99.90;;;;;;9957197;28;20046;-59
2023/01/18 00:22:08;;;;;;;3.72;2.25;;;3.10;99.90;;;;;;9981336;28;20030;-60
2023/01/18 00:26:59;;;;;;;4.68;2.40;;;3.10;99.90;;;;;;9981132;28;20046;-62
2023/01/18 00:31:49;;;;;;;3.50;2.05;;;3.20;99.90;;;;;;9989590;28;20015;-66
2023/01/18 00:36:40;;;;;;;4.05;2.35;;;3.30;99.90;;;;;;9985696;28;20076;-60
2023/01/18 00:41:31;;;;;;;3.25;1.83;;;3.20;99.90;;;;;;10007381;28;20042;-61
2023/01/18 00:46:28;;;;;;;3.15;1.85;;;3.20;99.90;;;;;;10000548;28;20333;-61
2023/01/18 00:51:22;;;;;;;3.78;2.00;;;3.20;99.90;;;;;;9975741;28;20026;-60
2023/01/18 00:56:18;;;;;;;2.72;1.70;;;3.20;99.90;;;;;;9984739;28;20046;-61
2023/01/18 01:01:10;;;;;;;2.25;1.63;;;3.10;99.90;;;;;;10007149;28;20084;-60
2023/01/18 01:11:11;;;;;;;1.88;1.48;;;3.10;99.90;;;;;;10014754;28;20029;-64
2023/01/18 01:26:25;;;;;;;3.40;2.58;;;3.20;99.90;;;;;;9978663;28;20201;-60
2023/01/18 01:31:18;;;;;;;2.17;1.73;;;3.10;99.90;;;;;;9986769;28;20623;-61
2023/01/18 01:36:13;;;;;;;2.47;2.00;;;3.10;99.90;;;;;;9996676;28;20033;-62
2023/01/18 01:41:07;;;;;;;3.88;1.88;;;3.20;99.90;;;;;;9979933;28;20069;-61
2023/01/18 01:45:57;;;;;;;7.68;2.40;;;3.30;99.90;;;;;;9978229;28;20461;-63
2023/01/18 01:50:48;;;;;;;5.25;2.47;;;3.30;99.90;;;;;;9978190;28;20321;-64
2023/01/18 01:55:39;;;;;;;4.50;2.08;;;3.20;99.90;;;;;;9978331;28;20042;-62
2023/01/18 02:00:31;;;;;;;3.22;2.15;;;3.10;99.90;;;;;;9964567;28;20069;-60
2023/01/18 02:05:22;;;;;;;4.72;2.67;;;3.20;99.90;;;;;;9975661;28;20077;-60
2023/01/18 02:10:13;;;;;;;4.88;2.38;;;3.10;99.90;;;;;;9977795;28;20019;-59
2023/01/18 02:15:05;;;;;;;4.70;2.63;;;3.10;99.90;;;;;;9977443;28;20113;-59
2023/01/18 02:20:30;;;;;;;1.90;1.48;;;3.10;99.90;;;;;;9976912;28;20038;-60
2023/01/18 02:25:49;;;;;;;4.38;2.33;;;3.00;99.90;;;;;;9981925;28;20033;-59
2023/01/18 02:30:58;;;;;;;2.30;1.33;;;3.10;99.90;;;;;;9981439;28;20036;-60
2023/01/18 02:35:50;;;;;;;3.15;1.92;;;3.00;99.90;;;;;;9996132;28;20023;-59
2023/01/18 02:41:18;;;;;;;3.92;2.25;;;2.90;99.90;;;;;;9986483;28;20520;-65
2023/01/18 02:51:23;;;;;;;2.78;2.00;;;2.90;99.90;;;;;;9991217;28;20049;-60
2023/01/18 02:56:24;;;;;;;2.38;1.60;;;2.90;99.90;;;;;;9983108;28;20033;-62
2023/01/18 03:01:25;;;;;;;4.25;1.98;;;2.90;99.90;;;;;;9997565;28;20511;-64
2023/01/18 03:06:19;;;;;;;4.95;2.00;;;2.90;99.90;;;;;;10010881;28;20368;-60
2023/01/18 03:11:50;;;;;;;5.15;2.97;;;2.70;99.90;;;;;;10007855;28;20384;-63
2023/01/18 03:17:19;;;;;;;5.13;1.83;;;2.60;99.90;;;;;;10014993;28;20059;-62
2023/01/18 03:22:10;;;;;;;4.10;2.42;;;2.80;99.90;;;;;;9891317;28;20034;-61
2023/01/18 03:37:31;;;;;;;3.10;2.03;;;2.60;99.90;;;;;;9997619;28;20467;-61
2023/01/18 03:42:32;;;;;;;4.05;2.25;;;2.60;99.90;;;;;;10012045;28;20050;-62
2023/01/18 03:47:23;;;;;;;4.32;2.25;;;2.50;99.90;;;;;;10007615;28;20107;-61
2023/01/18 03:52:22;;;;;;;4.68;2.63;;;2.50;99.90;;;;;;9992357;28;20036;-61
2023/01/18 03:57:19;;;;;;;5.72;2.75;;;2.60;99.90;;;;;;9994210;28;20033;-61
2023/01/18 04:02:10;;;;;;;6.35;2.45;;;2.70;99.90;;;;;;10003161;28;20022;-60
2023/01/18 04:07:01;;;;;;;3.67;2.38;;;2.60;99.90;;;;;;10004173;28;20396;-61
2023/01/18 04:11:52;;;;;;;5.85;3.72;;;2.60;99.90;;;;;;10002711;28;20159;-64
2023/01/18 04:16:42;;;;;;;5.57;2.45;;;2.60;99.90;;;;;;9963112;28;20528;-62
2023/01/18 04:21:34;;;;;;;6.63;3.45;;;2.60;99.90;;;;;;9990556;28;20100;-63
2023/01/18 04:26:25;;;;;;;4.95;2.85;;;2.50;99.90;;;;;;9998208;28;20038;-62
2023/01/18 04:31:16;;;;;;;9.70;3.95;;;2.50;99.90;;;;;;9994364;28;20516;-60
2023/01/18 04:36:07;;;;;;;6.60;2.78;;;2.50;99.90;;;;;;9998320;28;20140;-60
2023/01/18 04:41:05;;;;;;;4.82;2.83;;;2.60;99.90;;;;;;10000890;28;20108;-60
2023/01/18 04:45:56;;;;;;;7.43;2.83;;;2.50;99.90;;;;;;9988225;28;20073;-60
2023/01/18 04:50:47;;;;;;;4.97;2.63;;;2.60;99.90;;;;;;9985425;28;20053;-61
2023/01/18 04:55:37;;;;;;;5.47;3.00;;;2.60;99.90;;;;;;9991199;28;20045;-62
2023/01/18 05:00:28;;;;;;;5.00;2.95;;;2.50;99.90;;;;;;10001174;28;20034;-60
2023/01/18 05:05:19;;;;;;;3.97;2.55;;;2.50;99.90;;;;;;10003678;28;20416;-60
2023/01/18 05:10:10;;;;;;;6.05;2.63;;;2.50;99.90;;;;;;10014756;28;20464;-61
2023/01/18 05:15:01;;;;;;;8.55;3.58;;;2.60;99.90;;;;;;9985688;28;20452;-60
2023/01/18 05:19:53;;;;;;;3.08;2.28;;;2.50;99.90;;;;;;9988541;28;20022;-62
2023/01/18 05:24:44;;;;;;;7.07;2.63;;;2.50;99.90;;;;;;9989609;28;20034;-60
2023/01/18 05:29:34;;;;;;;6.22;2.75;;;2.50;99.90;;;;;;9988398;28;20030;-59
2023/01/18 05:34:26;;;;;;;5.20;2.75;;;2.50;99.90;;;;;;10003102;28;20018;-59
2023/01/18 05:39:16;;;;;;;4.03;2.00;;;2.40;99.90;;;;;;9986341;28;20026;-61
2023/01/18 05:44:08;;;;;;;5.20;2.78;;;2.40;99.90;;;;;;10001409;28;20042;-59
2023/01/18 05:48:58;;;;;;;6.32;2.47;;;2.50;99.90;;;;;;10009017;28;20042;-61
2023/01/18 05:53:49;;;;;;;3.58;2.33;;;2.60;99.90;;;;;;9991726;28;20515;-61
2023/01/18 05:58:40;;;;;;;5.63;2.47;;;2.50;99.90;;;;;;9993888;28;20034;-59
2023/01/18 06:03:30;;;;;;;5.93;2.72;;;2.50;99.90;;;;;;9993295;28;20011;-60
2023/01/18 06:08:21;;;;;;;5.78;2.28;;;2.40;99.90;;;;;;9976340;28;20050;-60
2023/01/18 06:13:12;;;;;;;3.67;2.17;;;2.40;99.90;;;;;;9965694;28;20034;-63
2023/01/18 06:18:02;;;;;;;3.33;1.92;;;2.40;99.90;;;;;;9976492;28;20070;-64
2023/01/18 06:22:53;;;;;;;4.28;1.55;;;2.30;99.90;;;;;;9977431;28;20073;-62
2023/01/18 06:27:44;;;;;;;3.95;2.17;;;2.40;99.90;;;;;;9964176;28;20482;-62
2023/01/18 06:32:34;;;;;;;3.55;1.98;;;2.40;99.90;;;;;;9991801;28;20523;-62
2023/01/18 06:37:25;;;;;;;5.82;2.33;;;2.40;99.90;;;;;;9990264;28;20053;-62
2023/01/18 06:42:15;;;;;;;6.10;2.63;;;2.50;99.90;;;;;;9976633;28;20528;-62
2023/01/18 06:47:06;;;;;;;5.95;2.85;;;2.50;99.90;;;;;;9977518;28;20152;-64
2023/01/18 06:51:57;;;;;;;4.47;2.83;;;2.50;99.90;;;;;;9977077;28;20066;-60
2023/01/18 06:56:47;;;;;;;7.10;2.42;;;2.40;99.90;;;;;;9974873;28;20069;-61
2023/01/18 07:01:38;;;;;;;4.57;2.50;;;2.40;99.90;;;;;;9978757;28;20026;-62
2023/01/18 07:06:29;;;;;;;5.72;2.72;;;2.40;99.90;;;;;;9970512;28;20038;-61
2023/01/18 07:11:19;;;;;;;2.80;2.45;;;2.40;99.90;;;;;;9977040;28;20037;-62
2023/01/18 07:16:16;;;;;;;7.35;2.80;;;2.40;99.90;;;;;;9976028;28;20093;-62
2023/01/18 07:21:06;;;;;;;5.50;2.70;;;2.40;99.90;;;;;;9976569;28;20080;-61
2023/01/18 07:26:06;;;;;;;5.85;2.50;;;2.60;99.90;;;;;;9975954;28;20081;-61
2023/01/18 07:30:57;;;;;;;4.68;2.75;;;2.60;99.90;;;;;;9967459;28;20039;-61
2023/01/18 07:35:50;;;;;;;6.70;2.33;;;2.70;99.90;;;;;;9991522;28;20411;-59
2023/01/18 07:40:40;;;;;;;3.47;2.42;;;2.70;99.90;;;;;;10003121;28;20509;-59
2023/01/18 07:45:32;;;;;;;6.60;3.17;;;2.80;99.90;;;;;;10001171;28;20030;-61
2023/01/18 07:50:22;;;;;;;4.70;2.30;;;2.80;99.90;;;;;;9974382;28;20022;-57
2023/01/18 07:55:13;;;;;;;3.40;2.53;;;3.00;99.90;;;;;;9999472;28;20496;-60
2023/01/18 08:00:07;;;;;;;5.85;3.03;;;3.10;99.90;;;;;;9997532;28;20101;-61
2023/01/18 08:04:58;;;;;;;6.05;3.10;;;3.10;99.90;;;;;;10004158;28;20038;-60
2023/01/18 08:09:49;;;;;;;7.43;3.13;;;3.20;99.90;;;;;;9995325;28;20026;-64
2023/01/18 08:14:40;;;;;;;5.57;2.95;;;3.30;99.90;;;;;;9998309;28;20029;-59
2023/01/18 08:19:30;;;;;;;7.72;3.22;;;3.30;99.90;;;;;;9983023;28;20121;-64
2023/01/18 08:24:21;;;;;;;7.80;3.83;;;3.40;99.90;;;;;;9974475;28;20133;-62
2023/01/18 08:29:12;;;;;;;5.30;3.08;;;3.50;99.90;;;;;;9967006;28;20046;-61
2023/01/18 08:34:03;;;;;;;6.10;3.50;;;3.30;99.90;;;;;;9997171;28;20180;-61
2023/01/18 08:38:58;;;;;;;5.72;3.03;;;3.30;99.90;;;;;;9993613;28;20624;-60
2023/01/18 08:43:52;;;;;;;5.10;2.67;;;3.40;99.90;;;;;;10014316;28;20123;-58
2023/01/18 08:48:43;;;;;;;6.88;3.90;;;3.60;99.90;;;;;;9982174;28;20469;-61
2023/01/18 08:53:33;;;;;;;4.93;3.53;;;3.80;99.90;;;;;;9993473;28;20026;-61
2023/01/18 08:58:24;;;;;;;8.68;3.60;;;3.60;99.90;;;;;;9988332;28;20030;-61
2023/01/18 09:03:20;;;;;;;7.30;4.30;;;3.60;99.90;;;;;;9977604;28;20034;-59
2023/01/18 09:08:11;;;;;;;9.02;4.22;;;3.50;99.90;;;;;;9979051;28;20309;-60
2023/01/18 09:13:02;;;;;;;11.13;4.72;;;3.50;99.90;;;;;;9979454;28;20034;-61
2023/01/18 09:17:52;;;;;;;9.48;4.65;;;3.50;99.90;;;;;;9979628;28;20297;-60
2023/01/18 09:22:46;;;;;;;9.43;3.53;;;3.60;99.90;;;;;;9979297;28;20444;-60
2023/01/18 09:27:37;;;;;;;5.97;4.07;;;3.60;99.90;;;;;;9978543;28;20040;-60
2023/01/18 09:32:28;;;;;;;8.65;4.60;;;3.70;99.90;;;;;;9992379;28;20411;-60
2023/01/18 09:37:19;;;;;;;5.50;4.15;;;3.50;99.90;;;;;;9995214;28;20057;-62
2023/01/18 09:42:27;;;;;;;7.10;4.25;;;3.60;99.90;;;;;;10003539;28;20101;-63
2023/01/18 09:47:26;;;;;;;6.38;3.45;;;3.60;99.90;;;;;;9997237;28;20034;-62
2023/01/18 09:52:31;;;;;;;7.63;4.35;;;3.70;99.90;;;;;;9989335;28;20022;-64
2023/01/18 09:57:59;;;;;;;7.43;4.60;;;3.90;99.90;;;;;;9984753;28;20085;-63
2023/01/18 10:02:59;;;;;;;9.43;3.78;;;3.80;99.90;;;;;;9993416;28;20034;-64
2023/01/18 10:08:01;;;;;;;9.00;4.40;;;3.90;99.90;;;;;;10011839;28;20120;-65
2023/01/18 10:13:17;;;;;;;8.48;4.32;;;4.00;99.90;;;;;;9998901;28;20459;-63
2023/01/18 10:18:08;;;;;;;8.73;4.68;;;4.00;99.90;;;;;;9977560;28;20026;-62
2023/01/18 10:23:09;;;;;;;5.60;4.25;;;3.90;99.90;;;;;;9991066;28;20037;-63
2023/01/18 10:28:24;;;;;;;6.07;3.63;;;4.00;99.90;;;;;;9988281;28;20094;-62
2023/01/18 10:33:24;;;;;;;6.13;3.37;;;4.00;99.90;;;;;;9995111;28;20081;-62
2023/01/18 10:38:22;;;;;;;6.15;3.05;;;4.20;99.90;;;;;;9967832;28;20030;-63
2023/01/18 10:43:19;;;;;;;5.55;3.72;;;4.20;99.90;;;;;;9976891;28;20080;-60
2023/01/18 10:48:24;;;;;;;6.70;2.85;;;4.40;99.90;;;;;;9977651;28;20042;-62
2023/01/18 10:53:30;;;;;;;5.10;2.50;;;4.60;99.90;;;;;;9976834;28;20038;-63
2023/01/18 10:58:44;;;;;;;5.97;2.72;;;4.80;99.90;;;;;;9976034;28;20030;-62
2023/01/18 11:03:44;;;;;;;5.57;2.30;;;4.90;99.90;;;;;;9989823;28;20037;-56
2023/01/18 11:08:35;;;;;;;6.75;2.60;;;4.80;99.90;;;;;;9978596;28;20042;-57
2023/01/18 11:13:46;;;;;;;5.93;2.80;;;4.80;99.90;;;;;;9993303;28;20397;-58
2023/01/18 11:18:36;;;;;;;4.20;2.13;;;4.70;99.90;;;;;;9965084;28;20475;-56
2023/01/18 11:23:37;;;;;;;4.63;2.60;;;4.60;99.90;;;;;;9982543;28;20129;-61
2023/01/18 11:28:27;;;;;;;6.47;2.30;;;4.60;99.90;;;;;;9986791;28;20048;-62
2023/01/18 11:33:22;;;;;;;4.90;2.22;;;4.50;99.90;;;;;;9992819;28;20108;-59
2023/01/18 11:38:17;;;;;;;5.70;2.57;;;4.50;99.90;;;;;;9987590;28;20413;-55
2023/01/18 11:43:21;;;;;;;6.00;2.50;;;4.50;99.90;;;;;;9999786;28;20517;-58
2023/01/18 11:48:25;;;;;;;4.75;2.40;;;4.50;99.90;;;;;;9983896;28;20539;-61
2023/01/18 11:53:45;;;;;;;5.72;2.33;;;4.50;99.90;;;;;;9982342;28;20046;-55
2023/01/18 11:58:36;;;;;;;4.47;2.63;;;4.50;99.90;;;;;;9975779;28;20582;-57
2023/01/18 12:04:10;;;;;;;3.08;1.88;;;4.50;99.90;;;;;;9982744;28;20029;-64
2023/01/18 12:09:19;;;;;;;4.43;1.92;;;4.60;99.90;;;;;;10002629;28;20038;-61
2023/01/18 12:14:37;;;;;;;7.47;2.88;;;4.90;99.90;;;;;;9991790;28;20369;-59
2023/01/18 12:19:58;;;;;;;3.65;2.33;;;5.00;99.90;;;;;;9979979;28;20100;-56
2023/01/18 12:25:07;;;;;;;5.95;2.40;;;5.10;99.90;;;;;;9978153;28;20025;-60
2023/01/18 12:30:10;;;;;;;7.35;2.80;;;5.10;99.90;;;;;;9984702;28;20505;-59
2023/01/18 12:35:36;;;;;;;8.73;3.05;;;5.20;99.90;;;;;;9980515;28;20030;-60
2023/01/18 12:40:46;;;;;;;3.57;2.33;;;5.30;99.90;;;;;;9976007;28;20070;-61
2023/01/18 12:45:51;;;;;;;5.95;3.20;;;5.10;99.90;;;;;;9980377;28;20512;-60
2023/01/18 12:50:47;;;;;;;7.38;4.15;;;5.00;99.90;;;;;;9981003;28;20105;-60
2023/01/18 12:55:41;;;;;;;5.70;3.27;;;4.80;99.90;;;;;;9980078;28;20054;-60
2023/01/18 13:00:50;;;;;;;5.22;3.30;;;4.70;99.90;;;;;;9986407;28;20499;-59
2023/01/18 13:05:54;;;;;;;5.43;2.90;;;4.60;99.90;;;;;;9979871;28;20515;-58
2023/01/18 13:10:47;;;;;;;8.05;4.00;;;4.70;99.90;;;;;;9979617;28;20026;-54
2023/01/18 13:15:44;;;;;;;9.32;3.55;;;4.70;99.90;;;;;;9979494;28;20236;-56
2023/01/18 13:21:15;;;;;;;4.95;2.90;;;4.70;99.90;;;;;;9980009;28;20044;-57
2023/01/18 13:26:31;;;;;;;8.32;3.47;;;4.70;99.90;;;;;;9970299;28;20080;-56
2023/01/18 13:31:29;;;;;;;11.07;3.65;;;4.80;99.90;;;;;;9959750;28;20061;-53
2023/01/18 13:36:20;;;;;;;9.02;4.35;;;4.80;99.90;;;;;;9977353;28;20436;-58
2023/01/18 13:41:12;;;;;;;9.10;3.28;;;4.70;99.90;;;;;;9978518;28;20062;-58
2023/01/18 13:46:05;;;;;;;4.18;2.35;;;4.70;99.90;;;;;;9976703;28;20046;-58
2023/01/18 13:50:56;;;;;;;7.50;3.17;;;4.60;99.90;;;;;;9977842;28;20030;-58
2023/01/18 13:55:58;;;;;;;5.30;2.45;;;4.70;99.90;;;;;;9982939;28;20030;-57
2023/01/18 14:00:49;;;;;;;3.50;3.05;;;4.70;99.90;;;;;;9975023;28;20084;-57
2023/01/18 14:05:47;;;;;;;7.07;2.45;;;4.70;99.90;;;;;;9984551;28;20374;-57
2023/01/18 14:10:46;;;;;;;3.58;2.15;;;4.60;99.90;;;;;;9968816;28;20037;-58
2023/01/18 14:15:42;;;;;;;3.30;3.00;;;4.60;99.90;;;;;;9976531;28;20030;-56
2023/01/18 14:20:33;;;;;;;6.82;2.50;;;4.60;99.90;;;;;;9981400;28;20034;-58
2023/01/18 14:25:44;;;;;;;5.32;2.30;;;4.60;99.90;;;;;;9977378;28;20388;-60
2023/01/18 14:30:36;;;;;;;5.95;2.22;;;4.70;99.90;;;;;;9982073;28;20166;-63
2023/01/18 14:35:27;;;;;;;4.47;2.72;;;4.90;99.90;;;;;;9977673;28;20563;-62
2023/01/18 14:40:22;;;;;;;3.35;2.15;;;4.90;99.90;;;;;;9977995;28;20105;-64
2023/01/18 14:45:29;;;;;;;5.13;2.28;;;4.80;99.90;;;;;;9975973;28;20077;-62
2023/01/18 14:50:22;;;;;;;4.97;3.13;;;4.80;99.90;;;;;;9986487;28;20030;-56
2023/01/18 14:55:31;;;;;;;6.40;2.08;;;4.80;99.90;;;;;;9975679;28;20038;-55
2023/01/18 15:00:23;;;;;;;6.53;2.53;;;4.80;99.90;;;;;;9976191;28;20057;-60
2023/01/18 15:05:18;;;;;;;2.58;2.30;;;4.80;99.90;;;;;;9984422;28;20027;-61
2023/01/18 15:10:09;;;;;;;4.20;2.42;;;4.80;99.90;;;;;;9989609;28;20037;-60
2023/01/18 15:15:07;;;;;;;4.22;2.20;;;4.60;99.90;;;;;;9989098;28;20038;-59
2023/01/18 15:20:04;;;;;;;4.65;3.00;;;4.60;99.90;;;;;;9980954;28;20117;-57
2023/01/18 15:24:57;;;;;;;4.95;2.17;;;4.40;99.90;;;;;;9984545;28;20030;-57
2023/01/18 15:29:53;;;;;;;4.15;2.20;;;4.30;99.90;;;;;;9987586;28;20089;-53
2023/01/18 15:34:45;;;;;;;;;;;4.20;99.90;;;;;;9988266;28;20044;-56
2023/01/18 15:39:55;;;;;;;5.95;3.05;;;4.10;99.90;;;;;;9983138;28;19905;-56
2023/01/18 15:44:49;;;;;;;4.82;2.42;;;4.10;99.90;;;;;;9982758;28;20046;-56
2023/01/18 15:49:47;;;;;;;5.65;2.78;;;4.00;99.90;;;;;;9992015;28;20038;-56
2023/01/18 15:54:39;;;;;;;5.40;3.55;;;4.10;99.90;;;;;;9989316;28;20030;-56
2023/01/18 15:59:29;;;;;;;4.32;2.78;;;4.00;99.90;;;;;;9984197;28;20046;-56
2023/01/18 16:04:21;;;;;;;3.80;2.90;;;3.90;99.90;;;;;;9989860;28;20072;-57
2023/01/18 16:09:13;;;;;;;5.07;2.63;;;3.80;99.90;;;;;;9978545;28;20534;-59
2023/01/18 16:14:39;;;;;;;7.55;2.83;;;3.70;99.90;;;;;;9980576;28;20022;-64
2023/01/18 16:19:35;;;;;;;6.95;2.75;;;3.70;99.90;;;;;;9963874;28;20125;-60
2023/01/18 16:24:32;;;;;;;5.10;2.85;;;3.60;99.90;;;;;;9980850;28;20031;-61
2023/01/18 16:29:23;;;;;;;5.35;3.00;;;3.60;99.90;;;;;;9984931;28;20033;-60
2023/01/18 16:34:21;;;;;;;5.10;3.05;;;3.50;99.90;;;;;;9980938;28;20041;-61
2023/01/18 16:39:12;;;;;;;17.45;3.22;;;3.50;99.90;;;;;;9980359;28;20033;-64
2023/01/18 16:44:03;;;;;;;4.50;2.33;;;3.40;99.90;;;;;;9990259;28;20058;-61
2023/01/18 16:48:54;;;;;;;6.95;3.67;;;3.50;99.90;;;;;;9979534;28;20050;-65
2023/01/18 16:53:45;;;;;;;5.55;2.95;;;3.40;99.90;;;;;;9986907;28;20042;-65
2023/01/18 16:58:37;;;;;;;7.93;4.63;;;3.40;99.90;;;;;;9984356;28;20052;-64
2023/01/18 17:03:27;;;;;;;6.03;3.10;;;3.40;99.90;;;;;;9985430;28;20106;-62
2023/01/18 17:08:19;;;;;;;6.82;4.00;;;3.30;99.90;;;;;;9983319;28;20215;-62
2023/01/18 17:13:09;;;;;;;8.30;4.65;;;3.20;99.90;;;;;;9983796;28;20513;-56
2023/01/18 17:18:01;;;;;;;10.20;3.90;;;3.20;99.90;;;;;;9969528;28;20042;-57
2023/01/18 17:22:54;;;;;;;10.13;3.83;;;3.20;99.90;;;;;;9979510;28;20034;-60
2023/01/18 17:27:45;;;;;;;7.40;3.65;;;3.10;99.90;;;;;;9978458;28;20489;-60
2023/01/18 17:32:36;;;;;;;9.95;4.88;;;3.00;99.90;;;;;;9982020;28;20019;-56
2023/01/18 17:37:27;;;;;;;14.82;6.05;;;3.10;99.90;;;;;;9958591;28;20087;-60
2023/01/18 17:42:17;;;;;;;10.95;5.47;;;3.00;99.90;;;;;;9971704;28;20509;-56
2023/01/18 17:47:09;;;;;;;5.50;4.10;;;3.00;99.90;;;;;;9976861;28;20061;-60
2023/01/18 17:52:00;;;;;;;14.65;6.38;;;3.10;99.90;;;;;;9981305;28;20026;-57
2023/01/18 17:56:52;;;;;;;8.50;4.53;;;3.00;99.90;;;;;;9988415;28;20117;-59
2023/01/18 18:01:42;;;;;;;8.90;4.53;;;3.00;99.90;;;;;;9979852;28;20937;-57
2023/01/18 18:06:33;;;;;;;9.13;4.45;;;2.90;99.90;;;;;;9977303;28;20038;-59
2023/01/18 18:11:24;;;;;;;7.70;4.10;;;2.90;99.90;;;;;;9977556;28;20014;-63
2023/01/18 18:16:14;;;;;;;7.57;4.47;;;2.80;99.90;;;;;;9972543;28;20031;-61
2023/01/18 18:21:06;;;;;;;6.28;3.60;;;2.80;99.90;;;;;;9972921;28;20104;-61
2023/01/18 18:25:57;;;;;;;8.00;3.85;;;2.80;99.90;;;;;;9974788;28;20050;-60
2023/01/18 18:30:50;;;;;;;9.77;4.50;;;2.90;99.90;;;;;;9976300;28;20031;-60
2023/01/18 18:35:41;;;;;;;11.40;4.70;;;2.90;99.90;;;;;;9975854;28;20027;-62
2023/01/18 18:40:32;;;;;;;6.75;4.28;;;2.90;99.90;;;;;;9976000;28;20046;-60
2023/01/18 18:45:23;;;;;;;6.10;4.32;;;2.90;99.90;;;;;;9980850;28;20046;-60
2023/01/18 18:50:14;;;;;;;9.05;5.00;;;3.00;99.90;;;;;;9977210;28;20030;-62
2023/01/18 18:55:05;;;;;;;8.55;4.57;;;3.00;99.90;;;;;;9989506;28;20041;-59
2023/01/18 18:59:57;;;;;;;6.25;3.83;;;2.90;99.90;;;;;;9984363;28;20033;-60
2023/01/18 19:04:48;;;;;;;8.45;4.93;;;2.90;99.90;;;;;;9983754;28;20022;-57
2023/01/18 19:09:44;;;;;;;11.10;4.93;;;2.90;99.90;;;;;;9988303;28;20058;-59
2023/01/18 19:14:34;;;;;;;9.35;4.88;;;2.90;99.90;;;;;;10002376;28;20037;-58
2023/01/18 19:19:25;;;;;;;10.00;4.75;;;2.90;99.90;;;;;;10008351;28;20093;-60
2023/01/18 19:24:15;;;;;;;12.02;5.53;;;2.90;99.90;;;;;;9997852;28;20088;-60
2023/01/18 19:29:06;;;;;;;11.95;6.18;;;2.90;99.90;;;;;;9987513;28;20036;-60
2023/01/18 19:33:57;;;;;;;10.02;4.78;;;2.80;99.90;;;;;;9983221;28;20026;-61
2023/01/18 19:38:48;;;;;;;11.52;5.35;;;2.90;99.90;;;;;;9982498;28;20392;-62
2023/01/18 19:43:38;;;;;;;11.00;5.65;;;2.90;99.90;;;;;;9982951;28;20042;-62
2023/01/18 19:48:29;;;;;;;12.23;5.82;;;2.80;99.90;;;;;;9985370;28;20463;-60
2023/01/18 19:53:20;;;;;;;16.58;6.20;;;2.80;99.90;;;;;;9988259;28;20030;-60
2023/01/18 19:58:10;;;;;;;12.23;6.57;;;2.80;99.90;;;;;;9982540;28;20113;-60
2023/01/18 20:03:01;;;;;;;8.65;5.10;;;2.80;99.90;;;;;;9984706;28;20038;-61
2023/01/18 20:07:52;;;;;;;8.73;5.32;;;2.80;99.90;;;;;;9989990;28;20096;-60
2023/01/18 20:12:43;;;;;;;8.65;5.05;;;2.70;99.90;;;;;;9984324;28;20034;-61
2023/01/18 20:17:33;;;;;;;12.90;5.57;;;2.80;99.90;;;;;;9980419;28;20563;-61
2023/01/18 20:22:24;;;;;;;8.60;5.50;;;2.70;99.90;;;;;;9981410;28;20032;-59
2023/01/18 20:27:15;;;;;;;13.02;5.55;;;2.70;99.90;;;;;;9981047;28;20034;-59
2023/01/18 20:32:06;;;;;;;11.88;4.50;;;2.70;99.90;;;;;;9986636;28;20026;-61
2023/01/18 20:36:57;;;;;;;8.93;4.32;;;2.60;99.90;;;;;;9980566;28;20045;-58
2023/01/18 20:41:48;;;;;;;9.48;4.65;;;2.50;99.90;;;;;;9980334;28;20312;-60
2023/01/18 20:46:41;;;;;;;10.57;5.35;;;2.50;99.90;;;;;;9979377;28;20031;-62
2023/01/18 20:51:32;;;;;;;10.43;5.07;;;2.50;99.90;;;;;;9979861;28;20022;-59
2023/01/18 20:56:23;;;;;;;10.40;5.13;;;2.40;99.90;;;;;;9963448;28;20120;-60
2023/01/18 21:01:16;;;;;;;10.20;5.03;;;2.30;99.90;;;;;;9979669;28;20022;-62
2023/01/18 21:06:08;;;;;;;11.10;4.78;;;2.30;99.90;;;;;;9976354;28;20477;-60
2023/01/18 21:10:58;;;;;;;10.95;5.05;;;2.30;99.90;;;;;;9976496;28;20089;-60
2023/01/18 21:15:57;;;;;;;11.82;5.15;;;2.30;99.90;;;;;;9978989;28;20080;-60
2023/01/18 21:20:52;;;;;;;14.38;5.82;;;2.30;99.90;;;;;;9978829;28;20631;-60
2023/01/18 21:25:49;;;;;;;13.00;5.00;;;2.30;99.90;;;;;;9978514;28;20038;-61
2023/01/18 21:30:40;;;;;;;9.80;4.57;;;2.30;99.90;;;;;;9979800;28;20045;-61
2023/01/18 21:35:31;;;;;;;10.98;5.32;;;2.30;99.90;;;;;;9983836;28;20045;-61
2023/01/18 21:40:21;;;;;;;8.43;4.22;;;2.20;99.90;;;;;;9977799;28;20463;-61
2023/01/18 21:55:51;;;;;;;9.00;5.30;;;2.20;99.90;;;;;;9958157;28;20057;-60
2023/01/18 22:00:42;;;;;;;8.52;4.70;;;2.20;99.90;;;;;;9967860;28;20157;-60
2023/01/18 22:05:32;;;;;;;6.43;4.30;;;2.20;99.90;;;;;;9977426;28;20572;-60
2023/01/18 22:10:23;;;;;;;10.35;4.30;;;2.10;99.90;;;;;;9977707;28;20023;-61
2023/01/18 22:15:18;;;;;;;8.93;4.47;;;2.10;99.90;;;;;;9977447;28;20030;-60
2023/01/18 22:20:10;;;;;;;12.70;4.03;;;2.10;99.90;;;;;;9977263;28;20037;-61
2023/01/18 22:25:01;;;;;;;8.88;4.65;;;2.10;99.90;;;;;;9976975;28;20357;-62
2023/01/18 22:29:51;;;;;;;7.22;4.43;;;2.00;99.90;;;;;;9978722;28;20105;-60
2023/01/18 22:34:42;;;;;;;7.15;3.53;;;2.00;99.90;;;;;;9976461;28;20026;-61
2023/01/18 22:39:32;;;;;;;8.02;3.30;;;2.00;99.90;;;;;;9965894;28;20026;-60
2023/01/18 22:44:23;;;;;;;8.55;4.03;;;2.00;99.90;;;;;;9976555;28;20261;-60
2023/01/18 22:49:14;;;;;;;8.60;3.70;;;1.90;99.90;;;;;;9971642;28;20452;-57
2023/01/18 22:54:05;;;;;;;8.05;4.00;;;1.90;99.90;;;;;;9971940;28;20089;-60
2023/01/18 22:58:56;;;;;;;9.35;4.10;;;1.90;99.90;;;;;;9978702;28;20109;-60
2023/01/18 23:03:53;;;;;;;10.10;4.07;;;1.90;99.90;;;;;;9977028;28;20045;-61
2023/01/18 23:08:44;;;;;;;6.70;3.53;;;1.90;99.90;;;;;;9979866;28;20034;-60
2023/01/18 23:13:36;;;;;;;8.48;4.50;;;1.80;99.90;;;;;;9984837;28;20088;-60
2023/01/18 23:18:27;;;;;;;8.90;3.28;;;1.80;99.90;;;;;;9983963;28;20026;-60
2023/01/18 23:23:18;;;;;;;8.70;3.92;;;1.80;99.90;;;;;;9984114;28;20026;-60
2023/01/18 23:28:08;;;;;;;8.25;4.22;;;1.80;99.90;;;;;;9968937;28;20501;-63
2023/01/18 23:32:59;;;;;;;8.35;3.88;;;1.70;99.90;;;;;;9984923;28;20026;-60
2023/01/18 23:37:50;;;;;;;9.55;4.35;;;1.60;99.90;;;;;;9983057;28;20026;-60
2023/01/18 23:58:10;;;;;;;6.43;3.53;;;1.70;99.90;;;;;;9985473;28;20198;-59
